sensor_id;sensor_type;location;lat;lon;timestamp;temperature;humidity
2220;DHT22;1116;51.502;7.414;2023-11-21T00:00:25;10.50;55.70
2220;DHT22;1116;51.502;7.414;2023-11-21T00:02:55;10.50;56.00
2220;DHT22;1116;51.502;7.414;2023-11-21T00:05:25;10.40;56.40
2220;DHT22;1116;51.502;7.414;2023-11-21T00:07:55;10.30;56.00
2220;DHT22;1116;51.502;7.414;2023-11-21T00:10:27;10.30;56.80
2220;DHT22;1116;51.502;7.414;2023-11-21T00:12:57;10.40;56.90
2220;DHT22;1116;51.502;7.414;2023-11-21T00:15:29;10.30;57.10
2220;DHT22;1116;51.502;7.414;2023-11-21T00:18:00;10.40;57.30
2220;DHT22;1116;51.502;7.414;2023-11-21T00:20:30;10.40;56.90
2220;DHT22;1116;51.502;7.414;2023-11-21T00:23:00;10.40;56.80
2220;DHT22;1116;51.502;7.414;2023-11-21T00:25:32;10.40;56.50
2220;DHT22;1116;51.502;7.414;2023-11-21T00:28:02;10.40;57.80
2220;DHT22;1116;51.502;7.414;2023-11-21T00:30:33;10.40;56.60
2220;DHT22;1116;51.502;7.414;2023-11-21T00:33:02;10.40;56.90
2220;DHT22;1116;51.502;7.414;2023-11-21T00:35:33;10.40;56.60
2220;DHT22;1116;51.502;7.414;2023-11-21T00:38:02;10.40;57.00
2220;DHT22;1116;51.502;7.414;2023-11-21T00:40:35;10.50;57.30
2220;DHT22;1116;51.502;7.414;2023-11-21T00:43:05;10.50;57.10
2220;DHT22;1116;51.502;7.414;2023-11-21T00:45:35;10.50;57.50
2220;DHT22;1116;51.502;7.414;2023-11-21T00:48:07;10.60;57.90
2220;DHT22;1116;51.502;7.414;2023-11-21T00:50:37;10.60;57.70
2220;DHT22;1116;51.502;7.414;2023-11-21T00:53:07;10.60;57.20
2220;DHT22;1116;51.502;7.414;2023-11-21T00:55:40;10.70;56.20
2220;DHT22;1116;51.502;7.414;2023-11-21T00:58:10;10.60;57.90
2220;DHT22;1116;51.502;7.414;2023-11-21T01:00:40;10.60;57.80
2220;DHT22;1116;51.502;7.414;2023-11-21T01:03:10;10.70;57.60
2220;DHT22;1116;51.502;7.414;2023-11-21T01:05:40;10.70;57.50
2220;DHT22;1116;51.502;7.414;2023-11-21T01:08:11;10.80;57.60
2220;DHT22;1116;51.502;7.414;2023-11-21T01:10:43;10.70;57.50
2220;DHT22;1116;51.502;7.414;2023-11-21T01:13:14;10.70;57.60
2220;DHT22;1116;51.502;7.414;2023-11-21T01:15:45;10.70;57.60
2220;DHT22;1116;51.502;7.414;2023-11-21T01:18:15;10.70;57.90
2220;DHT22;1116;51.502;7.414;2023-11-21T01:20:45;10.80;58.20
2220;DHT22;1116;51.502;7.414;2023-11-21T01:23:15;10.80;57.60
2220;DHT22;1116;51.502;7.414;2023-11-21T01:25:48;10.80;57.60
2220;DHT22;1116;51.502;7.414;2023-11-21T01:28:19;10.80;57.60
2220;DHT22;1116;51.502;7.414;2023-11-21T01:30:49;10.80;58.20
2220;DHT22;1116;51.502;7.414;2023-11-21T01:33:20;10.80;57.80
2220;DHT22;1116;51.502;7.414;2023-11-21T01:35:52;10.80;57.50
2220;DHT22;1116;51.502;7.414;2023-11-21T01:38:22;10.70;57.90
2220;DHT22;1116;51.502;7.414;2023-11-21T01:40:55;10.70;58.20
2220;DHT22;1116;51.502;7.414;2023-11-21T01:43:27;10.80;58.00
2220;DHT22;1116;51.502;7.414;2023-11-21T01:45:58;10.80;57.70
2220;DHT22;1116;51.502;7.414;2023-11-21T01:48:28;10.80;58.40
2220;DHT22;1116;51.502;7.414;2023-11-21T01:50:59;10.90;58.10
2220;DHT22;1116;51.502;7.414;2023-11-21T01:53:29;10.80;57.70
2220;DHT22;1116;51.502;7.414;2023-11-21T01:56:01;10.80;58.30
2220;DHT22;1116;51.502;7.414;2023-11-21T01:58:31;10.80;58.40
2220;DHT22;1116;51.502;7.414;2023-11-21T02:01:01;10.80;58.00
2220;DHT22;1116;51.502;7.414;2023-11-21T02:03:32;10.80;57.70
2220;DHT22;1116;51.502;7.414;2023-11-21T02:06:02;10.80;57.70
2220;DHT22;1116;51.502;7.414;2023-11-21T02:08:32;10.80;57.90
2220;DHT22;1116;51.502;7.414;2023-11-21T02:11:07;11.00;58.60
2220;DHT22;1116;51.502;7.414;2023-11-21T02:13:40;10.60;58.20
2220;DHT22;1116;51.502;7.414;2023-11-21T02:16:11;10.60;58.10
2220;DHT22;1116;51.502;7.414;2023-11-21T02:18:41;10.60;58.00
2220;DHT22;1116;51.502;7.414;2023-11-21T02:21:11;10.60;57.80
2220;DHT22;1116;51.502;7.414;2023-11-21T02:23:44;10.60;58.00
2220;DHT22;1116;51.502;7.414;2023-11-21T02:26:14;10.60;58.50
2220;DHT22;1116;51.502;7.414;2023-11-21T02:28:44;10.70;58.40
2220;DHT22;1116;51.502;7.414;2023-11-21T02:31:14;10.70;58.90
2220;DHT22;1116;51.502;7.414;2023-11-21T02:33:46;10.70;58.70
2220;DHT22;1116;51.502;7.414;2023-11-21T02:36:15;10.70;58.60
2220;DHT22;1116;51.502;7.414;2023-11-21T02:38:48;10.70;58.30
2220;DHT22;1116;51.502;7.414;2023-11-21T02:41:18;10.70;58.20
2220;DHT22;1116;51.502;7.414;2023-11-21T02:43:47;10.70;59.00
2220;DHT22;1116;51.502;7.414;2023-11-21T02:46:17;10.60;57.90
2220;DHT22;1116;51.502;7.414;2023-11-21T02:48:48;10.70;58.60
2220;DHT22;1116;51.502;7.414;2023-11-21T02:51:18;10.60;58.50
2220;DHT22;1116;51.502;7.414;2023-11-21T02:53:50;10.50;58.80
2220;DHT22;1116;51.502;7.414;2023-11-21T02:56:20;10.50;58.80
2220;DHT22;1116;51.502;7.414;2023-11-21T02:58:50;10.50;58.90
2220;DHT22;1116;51.502;7.414;2023-11-21T03:01:20;10.60;59.20
2220;DHT22;1116;51.502;7.414;2023-11-21T03:03:50;10.60;58.90
2220;DHT22;1116;51.502;7.414;2023-11-21T03:06:22;10.60;58.40
2220;DHT22;1116;51.502;7.414;2023-11-21T03:08:55;10.60;59.60
2220;DHT22;1116;51.502;7.414;2023-11-21T03:11:25;10.70;58.70
2220;DHT22;1116;51.502;7.414;2023-11-21T03:13:55;10.60;58.60
2220;DHT22;1116;51.502;7.414;2023-11-21T03:16:25;10.60;59.00
2220;DHT22;1116;51.502;7.414;2023-11-21T03:18:55;10.70;59.10
2220;DHT22;1116;51.502;7.414;2023-11-21T03:21:26;10.70;58.50
2220;DHT22;1116;51.502;7.414;2023-11-21T03:23:58;10.70;58.70
2220;DHT22;1116;51.502;7.414;2023-11-21T03:26:29;10.80;58.60
2220;DHT22;1116;51.502;7.414;2023-11-21T03:28:59;10.80;58.60
2220;DHT22;1116;51.502;7.414;2023-11-21T03:31:29;10.80;58.50
2220;DHT22;1116;51.502;7.414;2023-11-21T03:33:59;10.80;58.70
2220;DHT22;1116;51.502;7.414;2023-11-21T03:36:29;10.80;58.70
2220;DHT22;1116;51.502;7.414;2023-11-21T03:39:01;10.70;57.80
2220;DHT22;1116;51.502;7.414;2023-11-21T03:41:32;10.80;58.70
2220;DHT22;1116;51.502;7.414;2023-11-21T03:44:02;10.80;58.40
2220;DHT22;1116;51.502;7.414;2023-11-21T03:46:32;10.80;57.80
2220;DHT22;1116;51.502;7.414;2023-11-21T03:49:01;10.90;57.50
2220;DHT22;1116;51.502;7.414;2023-11-21T03:51:31;10.90;58.00
2220;DHT22;1116;51.502;7.414;2023-11-21T03:54:04;10.90;57.80
2220;DHT22;1116;51.502;7.414;2023-11-21T03:56:34;10.80;58.30
2220;DHT22;1116;51.502;7.414;2023-11-21T03:59:04;10.90;57.40
2220;DHT22;1116;51.502;7.414;2023-11-21T04:01:34;10.90;58.30
2220;DHT22;1116;51.502;7.414;2023-11-21T04:04:04;10.90;57.20
2220;DHT22;1116;51.502;7.414;2023-11-21T04:06:35;10.80;57.50
2220;DHT22;1116;51.502;7.414;2023-11-21T04:09:07;10.70;58.20
2220;DHT22;1116;51.502;7.414;2023-11-21T04:11:37;10.70;58.40
2220;DHT22;1116;51.502;7.414;2023-11-21T04:14:07;10.70;58.50
2220;DHT22;1116;51.502;7.414;2023-11-21T04:16:37;10.80;58.20
2220;DHT22;1116;51.502;7.414;2023-11-21T04:19:07;10.80;57.50
2220;DHT22;1116;51.502;7.414;2023-11-21T04:21:37;10.80;57.60
2220;DHT22;1116;51.502;7.414;2023-11-21T04:24:10;10.70;58.60
2220;DHT22;1116;51.502;7.414;2023-11-21T04:26:40;10.70;58.40
2220;DHT22;1116;51.502;7.414;2023-11-21T04:29:10;10.80;57.80
2220;DHT22;1116;51.502;7.414;2023-11-21T04:31:39;10.70;57.90
2220;DHT22;1116;51.502;7.414;2023-11-21T04:34:10;10.70;58.40
2220;DHT22;1116;51.502;7.414;2023-11-21T04:36:40;10.70;58.60
2220;DHT22;1116;51.502;7.414;2023-11-21T04:39:12;10.70;58.50
2220;DHT22;1116;51.502;7.414;2023-11-21T04:41:42;10.70;58.30
2220;DHT22;1116;51.502;7.414;2023-11-21T04:44:12;10.70;58.50
2220;DHT22;1116;51.502;7.414;2023-11-21T04:46:43;10.70;58.30
2220;DHT22;1116;51.502;7.414;2023-11-21T04:49:14;10.70;57.80
2220;DHT22;1116;51.502;7.414;2023-11-21T04:51:44;10.70;58.10
2220;DHT22;1116;51.502;7.414;2023-11-21T04:54:17;10.60;58.10
2220;DHT22;1116;51.502;7.414;2023-11-21T04:56:47;10.60;58.30
2220;DHT22;1116;51.502;7.414;2023-11-21T04:59:17;10.50;57.70
2220;DHT22;1116;51.502;7.414;2023-11-21T05:01:47;10.50;58.20
2220;DHT22;1116;51.502;7.414;2023-11-21T05:04:17;10.50;57.90
2220;DHT22;1116;51.502;7.414;2023-11-21T05:06:47;10.40;57.80
2220;DHT22;1116;51.502;7.414;2023-11-21T05:09:20;10.30;56.20
2220;DHT22;1116;51.502;7.414;2023-11-21T05:11:49;10.10;57.10
2220;DHT22;1116;51.502;7.414;2023-11-21T05:14:20;10.00;57.80
2220;DHT22;1116;51.502;7.414;2023-11-21T05:16:50;10.00;57.60
2220;DHT22;1116;51.502;7.414;2023-11-21T05:19:20;10.00;59.10
2220;DHT22;1116;51.502;7.414;2023-11-21T05:21:50;10.00;58.60
2220;DHT22;1116;51.502;7.414;2023-11-21T05:24:22;9.90;58.90
2220;DHT22;1116;51.502;7.414;2023-11-21T05:26:52;9.80;59.10
2220;DHT22;1116;51.502;7.414;2023-11-21T05:29:22;9.70;58.30
2220;DHT22;1116;51.502;7.414;2023-11-21T05:31:52;9.70;58.60
2220;DHT22;1116;51.502;7.414;2023-11-21T05:34:22;9.60;57.70
2220;DHT22;1116;51.502;7.414;2023-11-21T05:36:53;9.60;59.20
2220;DHT22;1116;51.502;7.414;2023-11-21T05:39:28;9.70;59.50
2220;DHT22;1116;51.502;7.414;2023-11-21T05:41:58;9.70;58.30
2220;DHT22;1116;51.502;7.414;2023-11-21T05:44:29;9.70;58.90
2220;DHT22;1116;51.502;7.414;2023-11-21T05:46:59;9.70;58.40
2220;DHT22;1116;51.502;7.414;2023-11-21T05:49:29;9.80;58.70
2220;DHT22;1116;51.502;7.414;2023-11-21T05:51:59;9.70;58.30
2220;DHT22;1116;51.502;7.414;2023-11-21T05:54:32;9.70;58.50
2220;DHT22;1116;51.502;7.414;2023-11-21T05:57:02;9.70;58.60
2220;DHT22;1116;51.502;7.414;2023-11-21T05:59:32;9.70;58.80
2220;DHT22;1116;51.502;7.414;2023-11-21T06:02:01;9.70;58.30
2220;DHT22;1116;51.502;7.414;2023-11-21T06:04:32;9.60;58.60
2220;DHT22;1116;51.502;7.414;2023-11-21T06:07:03;9.60;58.40
2220;DHT22;1116;51.502;7.414;2023-11-21T06:09:37;9.60;59.00
2220;DHT22;1116;51.502;7.414;2023-11-21T06:12:07;9.70;59.50
2220;DHT22;1116;51.502;7.414;2023-11-21T06:14:37;9.80;58.80
2220;DHT22;1116;51.502;7.414;2023-11-21T06:17:07;9.90;59.10
2220;DHT22;1116;51.502;7.414;2023-11-21T06:19:37;9.90;58.90
2220;DHT22;1116;51.502;7.414;2023-11-21T06:22:04;9.80;58.20
2220;DHT22;1116;51.502;7.414;2023-11-21T06:24:37;9.70;58.40
2220;DHT22;1116;51.502;7.414;2023-11-21T06:27:09;9.70;58.60
2220;DHT22;1116;51.502;7.414;2023-11-21T06:29:39;9.80;59.10
2220;DHT22;1116;51.502;7.414;2023-11-21T06:32:09;9.80;58.70
2220;DHT22;1116;51.502;7.414;2023-11-21T06:34:39;9.70;58.20
2220;DHT22;1116;51.502;7.414;2023-11-21T06:37:09;9.60;57.80
2220;DHT22;1116;51.502;7.414;2023-11-21T06:39:42;9.40;58.20
2220;DHT22;1116;51.502;7.414;2023-11-21T06:42:12;9.40;58.80
2220;DHT22;1116;51.502;7.414;2023-11-21T06:44:41;9.40;58.40
2220;DHT22;1116;51.502;7.414;2023-11-21T06:47:11;9.40;58.30
2220;DHT22;1116;51.502;7.414;2023-11-21T06:49:43;9.40;58.40
2220;DHT22;1116;51.502;7.414;2023-11-21T06:52:14;9.30;58.70
2220;DHT22;1116;51.502;7.414;2023-11-21T06:54:47;9.30;59.00
2220;DHT22;1116;51.502;7.414;2023-11-21T06:57:18;9.30;59.00
2220;DHT22;1116;51.502;7.414;2023-11-21T06:59:48;9.30;58.50
2220;DHT22;1116;51.502;7.414;2023-11-21T07:02:19;9.30;58.90
2220;DHT22;1116;51.502;7.414;2023-11-21T07:04:48;9.30;59.30
2220;DHT22;1116;51.502;7.414;2023-11-21T07:07:19;9.40;58.80
2220;DHT22;1116;51.502;7.414;2023-11-21T07:09:51;9.50;58.50
2220;DHT22;1116;51.502;7.414;2023-11-21T07:12:21;9.50;58.80
2220;DHT22;1116;51.502;7.414;2023-11-21T07:14:52;9.60;58.50
2220;DHT22;1116;51.502;7.414;2023-11-21T07:17:22;9.60;58.60
2220;DHT22;1116;51.502;7.414;2023-11-21T07:19:52;9.70;59.30
2220;DHT22;1116;51.502;7.414;2023-11-21T07:22:23;9.80;59.10
2220;DHT22;1116;51.502;7.414;2023-11-21T07:24:56;9.90;59.40
2220;DHT22;1116;51.502;7.414;2023-11-21T07:27:26;10.00;58.10
2220;DHT22;1116;51.502;7.414;2023-11-21T07:29:56;10.10;58.10
2220;DHT22;1116;51.502;7.414;2023-11-21T07:32:26;10.00;57.40
2220;DHT22;1116;51.502;7.414;2023-11-21T07:34:56;10.20;57.70
2220;DHT22;1116;51.502;7.414;2023-11-21T07:37:26;10.20;57.10
2220;DHT22;1116;51.502;7.414;2023-11-21T07:40:00;10.20;58.20
2220;DHT22;1116;51.502;7.414;2023-11-21T07:42:30;10.20;57.80
2220;DHT22;1116;51.502;7.414;2023-11-21T07:45:00;10.20;57.80
2220;DHT22;1116;51.502;7.414;2023-11-21T07:47:30;10.20;58.20
2220;DHT22;1116;51.502;7.414;2023-11-21T07:50:03;10.30;58.20
2220;DHT22;1116;51.502;7.414;2023-11-21T07:52:34;10.50;57.80
2220;DHT22;1116;51.502;7.414;2023-11-21T07:55:07;10.60;57.90
2220;DHT22;1116;51.502;7.414;2023-11-21T07:57:38;10.70;58.00
2220;DHT22;1116;51.502;7.414;2023-11-21T08:00:09;10.80;57.70
2220;DHT22;1116;51.502;7.414;2023-11-21T08:02:40;10.90;57.60
2220;DHT22;1116;51.502;7.414;2023-11-21T08:05:13;11.00;57.50
2220;DHT22;1116;51.502;7.414;2023-11-21T08:07:54;11.10;57.60
2220;DHT22;1116;51.502;7.414;2023-11-21T08:10:26;11.10;57.10
2220;DHT22;1116;51.502;7.414;2023-11-21T08:12:57;11.20;56.90
2220;DHT22;1116;51.502;7.414;2023-11-21T08:15:27;11.20;56.80
2220;DHT22;1116;51.502;7.414;2023-11-21T08:17:58;11.10;57.60
2220;DHT22;1116;51.502;7.414;2023-11-21T08:20:28;11.10;57.60
2220;DHT22;1116;51.502;7.414;2023-11-21T08:22:58;11.10;57.80
2220;DHT22;1116;51.502;7.414;2023-11-21T08:25:32;11.10;58.40
2220;DHT22;1116;51.502;7.414;2023-11-21T08:28:02;11.10;58.50
2220;DHT22;1116;51.502;7.414;2023-11-21T08:30:32;11.20;58.90
2220;DHT22;1116;51.502;7.414;2023-11-21T08:33:02;11.20;58.10
2220;DHT22;1116;51.502;7.414;2023-11-21T08:35:32;11.20;58.50
2220;DHT22;1116;51.502;7.414;2023-11-21T08:38:03;11.20;57.40
2220;DHT22;1116;51.502;7.414;2023-11-21T08:40:36;11.30;58.00
2220;DHT22;1116;51.502;7.414;2023-11-21T08:43:05;11.30;58.40
2220;DHT22;1116;51.502;7.414;2023-11-21T08:45:35;11.30;57.70
2220;DHT22;1116;51.502;7.414;2023-11-21T08:48:05;11.30;58.00
2220;DHT22;1116;51.502;7.414;2023-11-21T08:50:35;11.30;58.60
2220;DHT22;1116;51.502;7.414;2023-11-21T08:53:05;11.40;58.10
2220;DHT22;1116;51.502;7.414;2023-11-21T08:55:38;11.40;58.40
2220;DHT22;1116;51.502;7.414;2023-11-21T08:58:08;11.30;58.00
2220;DHT22;1116;51.502;7.414;2023-11-21T09:00:40;11.40;57.70
2220;DHT22;1116;51.502;7.414;2023-11-21T09:03:11;11.40;58.40
2220;DHT22;1116;51.502;7.414;2023-11-21T09:05:41;11.40;57.70
2220;DHT22;1116;51.502;7.414;2023-11-21T09:08:11;11.40;57.80
2220;DHT22;1116;51.502;7.414;2023-11-21T09:10:44;11.50;57.70
2220;DHT22;1116;51.502;7.414;2023-11-21T09:13:14;11.60;57.70
2220;DHT22;1116;51.502;7.414;2023-11-21T09:15:44;11.50;57.60
2220;DHT22;1116;51.502;7.414;2023-11-21T09:18:16;11.60;56.90
2220;DHT22;1116;51.502;7.414;2023-11-21T09:20:46;11.70;56.60
2220;DHT22;1116;51.502;7.414;2023-11-21T09:23:16;11.70;56.60
2220;DHT22;1116;51.502;7.414;2023-11-21T09:25:49;11.80;56.60
2220;DHT22;1116;51.502;7.414;2023-11-21T09:28:19;11.80;56.60
2220;DHT22;1116;51.502;7.414;2023-11-21T09:30:49;11.80;56.60
2220;DHT22;1116;51.502;7.414;2023-11-21T09:33:18;11.80;56.60
2220;DHT22;1116;51.502;7.414;2023-11-21T09:35:49;11.80;56.60
2220;DHT22;1116;51.502;7.414;2023-11-21T09:38:19;11.80;56.60
2220;DHT22;1116;51.502;7.414;2023-11-21T09:40:52;11.80;56.70
2220;DHT22;1116;51.502;7.414;2023-11-21T09:43:26;11.90;57.50
2220;DHT22;1116;51.502;7.414;2023-11-21T09:46:00;11.80;58.10
2220;DHT22;1116;51.502;7.414;2023-11-21T09:48:32;11.90;57.60
2220;DHT22;1116;51.502;7.414;2023-11-21T09:51:04;11.90;57.80
2220;DHT22;1116;51.502;7.414;2023-11-21T09:53:35;12.00;58.20
2220;DHT22;1116;51.502;7.414;2023-11-21T09:56:09;12.00;56.80
2220;DHT22;1116;51.502;7.414;2023-11-21T09:58:38;12.10;56.90
2220;DHT22;1116;51.502;7.414;2023-11-21T10:01:08;12.10;57.00
2220;DHT22;1116;51.502;7.414;2023-11-21T10:03:39;12.20;57.00
2220;DHT22;1116;51.502;7.414;2023-11-21T10:06:10;12.20;57.00
2220;DHT22;1116;51.502;7.414;2023-11-21T10:08:43;12.30;57.10
2220;DHT22;1116;51.502;7.414;2023-11-21T10:11:25;12.30;57.20
2220;DHT22;1116;51.502;7.414;2023-11-21T10:13:55;12.40;56.90
2220;DHT22;1116;51.502;7.414;2023-11-21T10:16:27;12.40;57.20
2220;DHT22;1116;51.502;7.414;2023-11-21T10:18:59;12.50;57.30
2220;DHT22;1116;51.502;7.414;2023-11-21T10:21:38;12.50;56.80
2220;DHT22;1116;51.502;7.414;2023-11-21T10:24:08;12.50;56.10
2220;DHT22;1116;51.502;7.414;2023-11-21T10:26:42;12.40;57.20
2220;DHT22;1116;51.502;7.414;2023-11-21T10:29:20;12.50;57.30
2220;DHT22;1116;51.502;7.414;2023-11-21T10:31:51;12.40;57.00
2220;DHT22;1116;51.502;7.414;2023-11-21T10:34:24;12.40;57.20
2220;DHT22;1116;51.502;7.414;2023-11-21T10:36:55;12.50;57.30
2220;DHT22;1116;51.502;7.414;2023-11-21T10:39:25;12.50;56.30
2220;DHT22;1116;51.502;7.414;2023-11-21T10:42:00;12.50;57.40
2220;DHT22;1116;51.502;7.414;2023-11-21T10:44:30;12.60;57.00
2220;DHT22;1116;51.502;7.414;2023-11-21T10:47:00;12.70;57.20
2220;DHT22;1116;51.502;7.414;2023-11-21T10:49:30;12.80;56.90
2220;DHT22;1116;51.502;7.414;2023-11-21T10:52:00;12.80;55.00
2220;DHT22;1116;51.502;7.414;2023-11-21T10:54:31;12.80;56.10
2220;DHT22;1116;51.502;7.414;2023-11-21T10:57:06;12.80;56.50
2220;DHT22;1116;51.502;7.414;2023-11-21T10:59:36;12.80;56.90
2220;DHT22;1116;51.502;7.414;2023-11-21T11:02:18;12.70;56.10
2220;DHT22;1116;51.502;7.414;2023-11-21T11:04:52;12.60;55.80
2220;DHT22;1116;51.502;7.414;2023-11-21T11:07:26;12.70;56.10
2220;DHT22;1116;51.502;7.414;2023-11-21T11:09:58;12.70;57.50
2220;DHT22;1116;51.502;7.414;2023-11-21T11:12:33;12.70;57.50
2220;DHT22;1116;51.502;7.414;2023-11-21T11:15:05;12.70;56.50
2220;DHT22;1116;51.502;7.414;2023-11-21T11:17:37;12.80;57.60
2220;DHT22;1116;51.502;7.414;2023-11-21T11:20:12;12.80;56.60
2220;DHT22;1116;51.502;7.414;2023-11-21T11:22:50;12.80;56.60
2220;DHT22;1116;51.502;7.414;2023-11-21T11:25:41;12.70;57.50
2220;DHT22;1116;51.502;7.414;2023-11-21T11:28:19;12.60;56.50
2220;DHT22;1116;51.502;7.414;2023-11-21T11:31:00;12.50;56.90
2220;DHT22;1116;51.502;7.414;2023-11-21T11:33:39;12.40;57.20
2220;DHT22;1116;51.502;7.414;2023-11-21T11:36:19;12.40;57.20
2220;DHT22;1116;51.502;7.414;2023-11-21T11:38:51;12.20;57.10
2220;DHT22;1116;51.502;7.414;2023-11-21T11:41:27;12.20;57.00
2220;DHT22;1116;51.502;7.414;2023-11-21T11:44:02;12.10;57.20
2220;DHT22;1116;51.502;7.414;2023-11-21T11:46:42;12.00;58.30
2220;DHT22;1116;51.502;7.414;2023-11-21T11:49:23;12.00;58.30
2220;DHT22;1116;51.502;7.414;2023-11-21T11:54:56;11.80;59.10
2220;DHT22;1116;51.502;7.414;2023-11-21T11:57:27;11.80;58.70
2220;DHT22;1116;51.502;7.414;2023-11-21T12:00:12;11.70;59.30
2220;DHT22;1116;51.502;7.414;2023-11-21T12:02:48;11.70;60.00
2220;DHT22;1116;51.502;7.414;2023-11-21T12:05:19;11.70;59.80
2220;DHT22;1116;51.502;7.414;2023-11-21T12:07:51;11.70;60.10
2220;DHT22;1116;51.502;7.414;2023-11-21T12:10:23;11.60;60.00
2220;DHT22;1116;51.502;7.414;2023-11-21T12:12:54;11.60;60.00
2220;DHT22;1116;51.502;7.414;2023-11-21T12:15:28;11.60;59.70
2220;DHT22;1116;51.502;7.414;2023-11-21T12:17:58;11.60;60.00
2220;DHT22;1116;51.502;7.414;2023-11-21T12:20:30;11.70;59.80
2220;DHT22;1116;51.502;7.414;2023-11-21T12:23:07;11.70;58.90
2220;DHT22;1116;51.502;7.414;2023-11-21T12:25:38;11.70;59.20
2220;DHT22;1116;51.502;7.414;2023-11-21T12:28:09;11.80;59.30
2220;DHT22;1116;51.502;7.414;2023-11-21T12:30:42;11.70;59.40
2220;DHT22;1116;51.502;7.414;2023-11-21T12:33:12;11.80;58.60
2220;DHT22;1116;51.502;7.414;2023-11-21T12:35:44;11.70;58.70
2220;DHT22;1116;51.502;7.414;2023-11-21T12:38:14;11.80;59.30
2220;DHT22;1116;51.502;7.414;2023-11-21T12:40:45;11.80;58.80
2220;DHT22;1116;51.502;7.414;2023-11-21T12:43:17;11.80;58.90
2220;DHT22;1116;51.502;7.414;2023-11-21T12:45:50;11.80;59.30
2220;DHT22;1116;51.502;7.414;2023-11-21T12:48:20;11.80;59.40
2220;DHT22;1116;51.502;7.414;2023-11-21T12:50:51;11.70;58.70
2220;DHT22;1116;51.502;7.414;2023-11-21T12:53:22;11.70;58.60
2220;DHT22;1116;51.502;7.414;2023-11-21T12:55:56;11.70;59.80
2220;DHT22;1116;51.502;7.414;2023-11-21T12:58:26;11.70;59.10
2220;DHT22;1116;51.502;7.414;2023-11-21T13:00:59;11.70;59.50
2220;DHT22;1116;51.502;7.414;2023-11-21T13:03:31;11.60;60.00
2220;DHT22;1116;51.502;7.414;2023-11-21T13:06:04;11.70;59.50
2220;DHT22;1116;51.502;7.414;2023-11-21T13:08:34;11.70;59.50
2220;DHT22;1116;51.502;7.414;2023-11-21T13:11:06;11.60;59.30
2220;DHT22;1116;51.502;7.414;2023-11-21T13:13:36;11.60;59.80
2220;DHT22;1116;51.502;7.414;2023-11-21T13:16:09;11.50;59.80
2220;DHT22;1116;51.502;7.414;2023-11-21T13:18:40;11.50;59.70
2220;DHT22;1116;51.502;7.414;2023-11-21T13:21:11;11.50;60.00
2220;DHT22;1116;51.502;7.414;2023-11-21T13:23:42;11.50;60.00
2220;DHT22;1116;51.502;7.414;2023-11-21T13:26:13;11.50;60.20
2220;DHT22;1116;51.502;7.414;2023-11-21T13:28:44;11.60;60.70
2220;DHT22;1116;51.502;7.414;2023-11-21T13:31:18;11.70;59.90
2220;DHT22;1116;51.502;7.414;2023-11-21T13:33:54;11.60;60.20
2220;DHT22;1116;51.502;7.414;2023-11-21T13:36:32;11.60;59.90
2220;DHT22;1116;51.502;7.414;2023-11-21T13:39:03;11.60;59.50
2220;DHT22;1116;51.502;7.414;2023-11-21T13:41:35;11.60;60.00
2220;DHT22;1116;51.502;7.414;2023-11-21T13:44:06;11.60;60.00
2220;DHT22;1116;51.502;7.414;2023-11-21T13:46:46;11.70;59.60
2220;DHT22;1116;51.502;7.414;2023-11-21T13:49:16;11.70;58.70
2220;DHT22;1116;51.502;7.414;2023-11-21T13:51:48;11.70;59.30
2220;DHT22;1116;51.502;7.414;2023-11-21T13:54:21;11.60;59.10
2220;DHT22;1116;51.502;7.414;2023-11-21T13:56:52;11.60;59.10
2220;DHT22;1116;51.502;7.414;2023-11-21T13:59:22;11.60;59.20
2220;DHT22;1116;51.502;7.414;2023-11-21T14:01:58;11.60;59.40
2220;DHT22;1116;51.502;7.414;2023-11-21T14:04:39;11.60;59.50
2220;DHT22;1116;51.502;7.414;2023-11-21T14:07:22;11.60;59.60
2220;DHT22;1116;51.502;7.414;2023-11-21T14:10:00;11.50;59.00
2220;DHT22;1116;51.502;7.414;2023-11-21T14:12:30;11.50;59.70
2220;DHT22;1116;51.502;7.414;2023-11-21T14:15:06;11.60;59.70
2220;DHT22;1116;51.502;7.414;2023-11-21T14:17:40;11.50;58.70
2220;DHT22;1116;51.502;7.414;2023-11-21T14:20:10;11.50;58.60
2220;DHT22;1116;51.502;7.414;2023-11-21T14:22:44;11.60;59.20
2220;DHT22;1116;51.502;7.414;2023-11-21T14:25:14;11.60;58.60
2220;DHT22;1116;51.502;7.414;2023-11-21T14:27:44;11.50;58.80
2220;DHT22;1116;51.502;7.414;2023-11-21T14:30:14;11.40;58.00
2220;DHT22;1116;51.502;7.414;2023-11-21T14:32:49;11.40;59.00
2220;DHT22;1116;51.502;7.414;2023-11-21T14:35:20;11.40;59.10
2220;DHT22;1116;51.502;7.414;2023-11-21T14:37:50;11.40;58.10
2220;DHT22;1116;51.502;7.414;2023-11-21T14:40:20;11.40;57.80
2220;DHT22;1116;51.502;7.414;2023-11-21T14:42:51;11.40;58.90
2220;DHT22;1116;51.502;7.414;2023-11-21T14:45:24;11.30;58.30
2220;DHT22;1116;51.502;7.414;2023-11-21T14:47:58;11.40;58.90
2220;DHT22;1116;51.502;7.414;2023-11-21T14:50:34;11.40;57.40
2220;DHT22;1116;51.502;7.414;2023-11-21T14:53:19;11.20;56.90
2220;DHT22;1116;51.502;7.414;2023-11-21T14:56:10;11.20;57.70
2220;DHT22;1116;51.502;7.414;2023-11-21T14:58:38;11.20;57.60
2220;DHT22;1116;51.502;7.414;2023-11-21T15:01:07;11.20;58.30
2220;DHT22;1116;51.502;7.414;2023-11-21T15:03:38;11.20;58.30
2220;DHT22;1116;51.502;7.414;2023-11-21T15:06:17;11.00;58.50
2220;DHT22;1116;51.502;7.414;2023-11-21T15:08:54;11.10;58.20
2220;DHT22;1116;51.502;7.414;2023-11-21T15:11:39;11.10;58.40
2220;DHT22;1116;51.502;7.414;2023-11-21T15:14:09;11.00;57.60
2220;DHT22;1116;51.502;7.414;2023-11-21T15:16:40;11.00;57.90
2220;DHT22;1116;51.502;7.414;2023-11-21T15:19:16;11.10;57.50
2220;DHT22;1116;51.502;7.414;2023-11-21T15:21:52;11.00;58.00
2220;DHT22;1116;51.502;7.414;2023-11-21T15:24:22;11.10;57.50
2220;DHT22;1116;51.502;7.414;2023-11-21T15:26:52;10.90;57.40
2220;DHT22;1116;51.502;7.414;2023-11-21T15:29:22;10.90;59.60
2220;DHT22;1116;51.502;7.414;2023-11-21T15:31:53;10.90;59.70
2220;DHT22;1116;51.502;7.414;2023-11-21T15:34:26;10.80;60.00
2220;DHT22;1116;51.502;7.414;2023-11-21T15:36:58;10.70;60.00
2220;DHT22;1116;51.502;7.414;2023-11-21T15:39:28;10.50;60.10
2220;DHT22;1116;51.502;7.414;2023-11-21T15:41:59;10.50;61.50
2220;DHT22;1116;51.502;7.414;2023-11-21T15:44:31;10.30;58.30
2220;DHT22;1116;51.502;7.414;2023-11-21T15:47:00;10.20;59.30
2220;DHT22;1116;51.502;7.414;2023-11-21T15:49:34;10.20;60.30
2220;DHT22;1116;51.502;7.414;2023-11-21T15:52:05;10.20;59.80
2220;DHT22;1116;51.502;7.414;2023-11-21T15:54:38;10.30;59.90
2220;DHT22;1116;51.502;7.414;2023-11-21T15:57:08;10.20;59.30
2220;DHT22;1116;51.502;7.414;2023-11-21T15:59:39;10.30;59.20
2220;DHT22;1116;51.502;7.414;2023-11-21T16:02:10;10.30;59.00
2220;DHT22;1116;51.502;7.414;2023-11-21T16:04:45;10.30;58.00
2220;DHT22;1116;51.502;7.414;2023-11-21T16:07:15;10.40;57.90
2220;DHT22;1116;51.502;7.414;2023-11-21T16:09:45;10.10;56.20
2220;DHT22;1116;51.502;7.414;2023-11-21T16:12:15;10.00;56.80
2220;DHT22;1116;51.502;7.414;2023-11-21T16:14:47;9.80;57.80
2220;DHT22;1116;51.502;7.414;2023-11-21T16:17:17;9.80;59.00
2220;DHT22;1116;51.502;7.414;2023-11-21T16:19:51;9.70;60.30
2220;DHT22;1116;51.502;7.414;2023-11-21T16:22:23;9.70;60.00
2220;DHT22;1116;51.502;7.414;2023-11-21T16:24:55;9.60;59.10
2220;DHT22;1116;51.502;7.414;2023-11-21T16:27:24;9.60;58.60
2220;DHT22;1116;51.502;7.414;2023-11-21T16:29:54;9.50;57.70
2220;DHT22;1116;51.502;7.414;2023-11-21T16:32:24;9.50;58.60
2220;DHT22;1116;51.502;7.414;2023-11-21T16:34:57;9.50;57.60